Time,TemperatureF,DewpointF,PressureIn,WindDirection,WindDirectionDegrees,WindSpeedMPH,WindSpeedGustMPH,Humidity,HourlyPrecipIn,Conditions,Clouds,dailyrainin,SoftwareType,DateUTC
2013-06-09 00:01:00,63.3,61.9,28.26,SSE,152,0.0,0.0,95,0.00,,---,0.00,VWS V14.01,2013-06-09 05:01:00,
2013-06-09 00:06:00,63.3,61.9,28.26,SSE,152,0.0,0.0,95,0.00,,---,0.00,VWS V14.01,2013-06-09 05:06:00,
2013-06-09 00:11:00,63.1,61.7,28.26,SSE,152,0.0,0.0,95,0.00,,---,0.00,VWS V14.01,2013-06-09 05:11:00,
2013-06-09 00:17:00,63.0,61.5,28.26,SSE,152,0.0,0.0,95,0.00,,---,0.00,VWS V14.01,2013-06-09 05:17:00,
2013-06-09 00:22:00,63.1,61.7,28.29,SSE,152,0.0,0.0,95,0.00,,---,0.00,VWS V14.01,2013-06-09 05:22:00,
2013-06-09 00:27:00,63.1,62.0,28.29,SSE,152,0.0,0.0,96,0.00,,---,0.00,VWS V14.01,2013-06-09 05:27:00,
2013-06-09 00:32:00,63.3,62.2,28.29,WSW,238,4.0,4.0,96,0.00,,---,0.00,VWS V14.01,2013-06-09 05:32:00,
2013-06-09 00:37:00,63.3,62.2,28.29,WSW,238,0.0,4.0,96,0.00,,---,0.00,VWS V14.01,2013-06-09 05:37:00,
2013-06-09 00:42:00,63.3,62.2,28.29,WSW,238,0.0,4.0,96,0.00,,---,0.00,VWS V14.01,2013-06-09 05:42:00,
2013-06-09 00:47:00,63.1,62.0,28.29,WSW,238,0.0,4.0,96,0.00,,---,0.00,VWS V14.01,2013-06-09 05:47:00,
2013-06-09 00:53:00,63.1,62.3,28.29,WSW,238,0.0,4.0,97,0.00,,---,0.00,VWS V14.01,2013-06-09 05:53:00,
2013-06-09 00:58:00,63.1,62.3,28.29,WSW,238,0.0,4.0,97,0.00,,---,0.00,VWS V14.01,2013-06-09 05:58:00,
2013-06-09 01:03:00,63.1,62.3,28.29,WSW,238,0.0,2.7,97,0.00,,---,0.00,VWS V14.01,2013-06-09 06:03:00,
2013-06-09 01:08:00,63.1,62.3,28.29,SW,218,0.0,4.9,97,0.00,,---,0.00,VWS V14.01,2013-06-09 06:08:00,
2013-06-09 01:13:00,63.0,62.1,28.29,SW,231,0.0,4.9,97,0.00,,---,0.00,VWS V14.01,2013-06-09 06:13:00,
2013-06-09 01:18:00,63.0,62.1,28.29,SSW,197,0.0,5.4,97,0.00,,---,0.00,VWS V14.01,2013-06-09 06:18:00,
2013-06-09 01:23:00,63.0,62.1,28.29,SW,215,0.0,5.4,97,0.00,,---,0.00,VWS V14.01,2013-06-09 06:23:00,
2013-06-09 01:28:00,62.8,61.9,28.29,SW,223,2.7,5.4,97,0.00,,---,0.00,VWS V14.01,2013-06-09 06:28:00,
2013-06-09 01:33:00,63.0,62.1,28.29,SW,227,0.0,5.4,97,0.00,,---,0.00,VWS V14.01,2013-06-09 06:33:00,
2013-06-09 01:38:00,63.0,62.1,28.29,WSW,255,2.2,5.4,97,0.00,,---,0.00,VWS V14.01,2013-06-09 06:38:00,
2013-06-09 01:44:00,63.0,62.1,28.29,SW,222,0.0,5.4,97,0.00,,---,0.00,VWS V14.01,2013-06-09 06:44:00,
2013-06-09 01:49:00,63.0,62.1,28.29,SW,222,0.0,5.4,97,0.00,,---,0.00,VWS V14.01,2013-06-09 06:49:00,
2013-06-09 01:54:00,62.8,61.9,28.29,SW,226,0.0,5.4,97,0.00,,---,0.00,VWS V14.01,2013-06-09 06:54:00,
2013-06-09 01:59:00,62.6,61.7,28.29,SSW,202,0.0,5.4,97,0.00,,---,0.00,VWS V14.01,2013-06-09 06:59:00,
2013-06-09 02:04:00,62.6,61.7,28.29,SSW,202,0.0,0.0,97,0.00,,---,0.00,VWS V14.01,2013-06-09 07:04:00,
2013-06-09 02:09:00,62.4,61.6,28.29,SSW,202,0.0,0.0,97,0.00,,---,0.00,VWS V14.01,2013-06-09 07:09:00,
2013-06-09 02:15:00,62.4,61.8,28.29,SSW,202,0.0,3.1,98,0.00,,---,0.00,VWS V14.01,2013-06-09 07:15:00,
2013-06-09 02:20:00,62.4,61.8,28.29,WSW,257,3.6,4.0,98,0.00,,---,0.00,VWS V14.01,2013-06-09 07:20:00,
2013-06-09 02:25:00,62.4,61.8,28.29,West,264,0.0,4.0,98,0.00,,---,0.00,VWS V14.01,2013-06-09 07:25:00,
2013-06-09 02:30:00,62.4,61.8,28.29,West,264,0.0,4.0,98,0.00,,---,0.00,VWS V14.01,2013-06-09 07:30:00,
2013-06-09 02:35:00,62.2,61.7,28.29,West,264,0.0,4.0,98,0.00,,---,0.00,VWS V14.01,2013-06-09 07:35:00,
2013-06-09 02:40:00,62.2,61.7,28.29,West,264,0.0,4.0,98,0.00,,---,0.00,VWS V14.01,2013-06-09 07:40:00,
2013-06-09 02:45:00,62.2,61.4,28.29,West,264,0.0,4.0,97,0.00,,---,0.00,VWS V14.01,2013-06-09 07:45:00,
2013-06-09 02:50:00,62.1,61.2,28.29,West,264,2.7,4.0,97,0.00,,---,0.00,VWS V14.01,2013-06-09 07:50:00,
2013-06-09 02:55:00,62.1,61.2,28.29,West,264,0.0,4.0,97,0.00,,---,0.00,VWS V14.01,2013-06-09 07:55:00,
2013-06-09 03:00:00,61.9,61.0,28.29,West,264,3.6,3.6,97,0.00,,---,0.00,VWS V14.01,2013-06-09 08:00:00,
2013-06-09 03:06:00,61.9,61.0,28.29,West,264,0.0,4.0,97,0.00,,---,0.00,VWS V14.01,2013-06-09 08:06:00,
2013-06-09 03:11:00,61.9,61.0,28.29,WSW,253,3.6,4.9,97,0.00,,---,0.00,VWS V14.01,2013-06-09 08:11:00,
2013-06-09 03:16:00,61.7,60.8,28.29,WSW,257,3.1,5.4,97,0.00,,---,0.00,VWS V14.01,2013-06-09 08:16:00,
2013-06-09 03:21:00,61.5,60.7,28.29,West,262,4.0,5.4,97,0.00,,---,0.00,VWS V14.01,2013-06-09 08:21:00,
2013-06-09 03:26:00,61.3,60.2,28.29,WSW,256,2.7,5.4,96,0.00,,---,0.00,VWS V14.01,2013-06-09 08:26:00,
2013-06-09 03:31:00,61.2,60.0,28.29,WSW,250,5.8,5.8,96,0.00,,---,0.00,VWS V14.01,2013-06-09 08:31:00,
2013-06-09 03:36:00,61.0,59.8,28.29,West,260,0.0,5.8,96,0.00,,---,0.00,VWS V14.01,2013-06-09 08:36:00,
2013-06-09 03:42:00,60.6,59.5,28.29,WSW,258,3.1,5.8,96,0.00,,---,0.00,VWS V14.01,2013-06-09 08:42:00,
2013-06-09 03:47:00,60.4,59.0,28.29,WSW,249,2.7,5.8,95,0.00,,---,0.00,VWS V14.01,2013-06-09 08:47:00,
2013-06-09 03:52:00,60.3,58.5,28.29,West,264,0.0,5.8,94,0.00,,---,0.00,VWS V14.01,2013-06-09 08:52:00,
2013-06-09 03:57:00,60.1,58.0,28.29,West,264,0.0,5.8,93,0.00,,---,0.00,VWS V14.01,2013-06-09 08:57:00,
2013-06-09 04:02:00,59.7,57.4,28.29,West,264,0.0,0.0,92,0.00,,---,0.00,VWS V14.01,2013-06-09 09:02:00,
2013-06-09 04:07:00,59.4,56.7,28.29,West,264,3.1,4.0,91,0.00,,---,0.00,VWS V14.01,2013-06-09 09:07:00,
2013-06-09 04:13:00,59.2,56.2,28.29,WSW,249,0.0,5.8,90,0.00,,---,0.00,VWS V14.01,2013-06-09 09:13:00,
2013-06-09 04:18:00,59.0,56.1,28.29,WSW,257,2.2,5.8,90,0.00,,---,0.00,VWS V14.01,2013-06-09 09:18:00,
2013-06-09 04:23:00,58.8,55.9,28.29,WSW,256,0.0,5.8,90,0.00,,---,0.00,VWS V14.01,2013-06-09 09:23:00,
2013-06-09 04:28:00,58.6,55.4,28.29,WSW,256,2.7,5.8,89,0.00,,---,0.00,VWS V14.01,2013-06-09 09:28:00,
2013-06-09 04:33:00,58.6,55.4,28.29,West,266,0.0,5.8,89,0.00,,---,0.00,VWS V14.01,2013-06-09 09:33:00,
2013-06-09 04:38:00,58.5,55.2,28.29,West,276,3.1,5.8,89,0.00,,---,0.00,VWS V14.01,2013-06-09 09:38:00,
2013-06-09 04:43:00,58.5,54.9,28.29,WSW,241,2.7,5.8,88,0.00,,---,0.00,VWS V14.01,2013-06-09 09:43:00,
2013-06-09 04:48:00,58.5,54.9,28.29,West,271,4.0,5.8,88,0.00,,---,0.00,VWS V14.01,2013-06-09 09:48:00,
2013-06-09 04:53:00,58.3,54.4,28.29,West,261,3.1,6.3,87,0.00,,---,0.00,VWS V14.01,2013-06-09 09:53:00,
2013-06-09 04:59:00,58.5,54.3,28.29,West,274,0.0,6.3,86,0.00,,---,0.00,VWS V14.01,2013-06-09 09:59:00,
2013-06-09 05:04:00,58.5,54.3,28.29,West,274,0.0,3.6,86,0.00,,---,0.00,VWS V14.01,2013-06-09 10:04:00,
2013-06-09 05:09:00,58.3,54.1,28.29,West,273,0.0,4.0,86,0.00,,---,0.00,VWS V14.01,2013-06-09 10:09:00,
2013-06-09 05:14:00,58.1,53.9,28.29,West,273,0.0,4.0,86,0.00,,---,0.00,VWS V14.01,2013-06-09 10:14:00,
2013-06-09 05:19:00,57.9,53.8,28.29,West,273,3.6,4.0,86,0.00,,---,0.00,VWS V14.01,2013-06-09 10:19:00,
2013-06-09 05:24:00,57.9,53.8,28.29,West,273,3.1,4.0,86,0.00,,---,0.00,VWS V14.01,2013-06-09 10:24:00,
2013-06-09 05:30:00,57.7,53.6,28.29,West,272,0.0,4.0,86,0.00,,---,0.00,VWS V14.01,2013-06-09 10:30:00,
2013-06-09 05:35:00,57.6,53.1,28.29,West,272,0.0,4.0,85,0.00,,---,0.00,VWS V14.01,2013-06-09 10:35:00,
2013-06-09 05:40:00,57.6,53.4,28.29,West,272,0.0,4.0,86,0.00,,---,0.00,VWS V14.01,2013-06-09 10:40:00,
2013-06-09 05:45:00,57.4,53.2,28.29,West,272,0.0,4.0,86,0.00,,---,0.00,VWS V14.01,2013-06-09 10:45:00,
2013-06-09 05:50:00,57.2,53.1,28.29,West,272,0.0,4.0,86,0.00,,---,0.00,VWS V14.01,2013-06-09 10:50:00,
2013-06-09 05:55:00,57.2,53.1,28.32,West,271,0.0,4.0,86,0.00,,---,0.00,VWS V14.01,2013-06-09 10:55:00,
2013-06-09 06:00:00,57.2,53.4,28.32,West,272,3.1,3.1,87,0.00,,---,0.00,VWS V14.01,2013-06-09 11:00:00,
2013-06-09 06:05:00,57.2,53.4,28.32,West,272,0.0,3.6,87,0.00,,---,0.00,VWS V14.01,2013-06-09 11:05:00,
2013-06-09 06:10:00,57.2,53.4,28.32,West,272,0.0,3.6,87,0.00,,---,0.00,VWS V14.01,2013-06-09 11:10:00,
2013-06-09 06:15:00,57.0,53.2,28.32,West,272,0.0,3.6,87,0.00,,---,0.00,VWS V14.01,2013-06-09 11:15:00,
2013-06-09 06:20:00,56.8,53.0,28.32,West,272,0.0,3.6,87,0.00,,---,0.00,VWS V14.01,2013-06-09 11:20:00,
2013-06-09 06:25:00,56.8,53.0,28.32,West,269,0.0,4.0,87,0.00,,---,0.00,VWS V14.01,2013-06-09 11:25:00,
2013-06-09 06:30:00,56.8,53.0,28.32,West,269,0.0,4.0,87,0.00,,---,0.00,VWS V14.01,2013-06-09 11:30:00,
2013-06-09 06:35:00,57.0,53.2,28.32,West,269,0.0,4.0,87,0.00,,---,0.00,VWS V14.01,2013-06-09 11:35:00,
2013-06-09 06:40:00,57.0,53.2,28.32,West,269,0.0,4.0,87,0.00,,---,0.00,VWS V14.01,2013-06-09 11:40:00,
2013-06-09 06:46:00,56.8,53.0,28.32,West,269,0.0,4.0,87,0.00,,---,0.00,VWS V14.01,2013-06-09 11:46:00,
2013-06-09 06:51:00,56.8,53.0,28.32,West,269,0.0,4.0,87,0.00,,---,0.00,VWS V14.01,2013-06-09 11:51:00,
2013-06-09 06:56:00,57.0,53.5,28.32,West,269,0.0,4.0,88,0.00,,---,0.00,VWS V14.01,2013-06-09 11:56:00,
2013-06-09 07:02:00,57.2,53.7,28.32,West,269,0.0,0.0,88,0.00,,---,0.00,VWS V14.01,2013-06-09 12:02:00,
2013-06-09 07:07:00,57.2,53.7,28.32,West,269,0.0,0.0,88,0.00,,---,0.00,VWS V14.01,2013-06-09 12:07:00,
2013-06-09 07:12:00,57.4,53.9,28.32,West,269,0.0,0.0,88,0.00,,---,0.00,VWS V14.01,2013-06-09 12:12:00,
2013-06-09 07:17:00,57.6,54.0,28.32,West,269,0.0,0.0,88,0.00,,---,0.00,VWS V14.01,2013-06-09 12:17:00,
2013-06-09 07:22:00,57.7,54.2,28.35,West,269,0.0,0.0,88,0.00,,---,0.00,VWS V14.01,2013-06-09 12:22:00,
2013-06-09 07:27:00,58.3,55.1,28.35,West,269,0.0,0.0,89,0.00,,---,0.00,VWS V14.01,2013-06-09 12:27:00,
2013-06-09 07:32:00,58.8,55.6,28.35,West,269,0.0,4.0,89,0.00,,---,0.00,VWS V14.01,2013-06-09 12:32:00,
2013-06-09 07:37:00,59.7,56.5,28.35,West,269,0.0,4.0,89,0.00,,---,0.00,VWS V14.01,2013-06-09 12:37:00,
2013-06-09 07:42:00,60.6,57.4,28.35,WSW,244,0.0,4.0,89,0.00,,---,0.00,VWS V14.01,2013-06-09 12:42:00,
2013-06-09 07:47:00,61.5,57.6,28.35,WSW,251,0.0,4.0,87,0.00,,---,0.00,VWS V14.01,2013-06-09 12:47:00,
2013-06-09 07:53:00,62.2,58.3,28.35,WSW,251,0.0,4.0,87,0.00,,---,0.00,VWS V14.01,2013-06-09 12:53:00,
2013-06-09 07:58:00,63.0,58.1,28.35,WSW,251,0.0,4.0,84,0.00,,---,0.00,VWS V14.01,2013-06-09 12:58:00,
2013-06-09 08:03:00,63.5,57.9,28.35,WSW,251,0.0,0.0,82,0.00,,---,0.00,VWS V14.01,2013-06-09 13:03:00,
2013-06-09 08:08:00,64.0,57.4,28.35,WSW,251,3.1,3.1,79,0.00,,---,0.00,VWS V14.01,2013-06-09 13:08:00,
2013-06-09 08:13:00,64.2,56.1,28.35,WSW,251,3.6,4.0,75,0.00,,---,0.00,VWS V14.01,2013-06-09 13:13:00,
2013-06-09 08:18:00,64.8,55.5,28.35,WSW,251,2.2,4.0,72,0.00,,---,0.00,VWS V14.01,2013-06-09 13:18:00,
2013-06-09 08:23:00,65.3,56.4,28.35,WSW,251,0.0,4.0,73,0.00,,---,0.00,VWS V14.01,2013-06-09 13:23:00,
2013-06-09 08:28:00,66.0,57.1,28.35,WSW,251,0.0,4.0,73,0.00,,---,0.00,VWS V14.01,2013-06-09 13:28:00,
2013-06-09 08:33:00,66.6,57.3,28.35,WSW,251,0.0,4.0,72,0.00,,---,0.00,VWS V14.01,2013-06-09 13:33:00,
2013-06-09 08:39:00,66.9,56.8,28.35,WSW,251,0.0,4.0,70,0.00,,---,0.00,VWS V14.01,2013-06-09 13:39:00,
2013-06-09 08:44:00,67.1,56.6,28.35,WSW,251,0.0,4.0,69,0.00,,---,0.00,VWS V14.01,2013-06-09 13:44:00,
2013-06-09 08:49:00,67.5,56.5,28.35,WSW,251,0.0,4.0,68,0.00,,---,0.00,VWS V14.01,2013-06-09 13:49:00,
2013-06-09 08:54:00,67.6,57.1,28.35,WSW,251,0.0,4.0,69,0.00,,---,0.00,VWS V14.01,2013-06-09 13:54:00,
2013-06-09 08:59:00,68.0,57.1,28.35,WSW,251,0.0,4.0,68,0.00,,---,0.00,VWS V14.01,2013-06-09 13:59:00,
2013-06-09 09:04:00,68.4,57.0,28.35,WSW,246,3.6,4.9,67,0.00,,---,0.00,VWS V14.01,2013-06-09 14:04:00,
2013-06-09 09:09:00,68.7,56.9,28.32,West,271,0.0,4.9,66,0.00,,---,0.00,VWS V14.01,2013-06-09 14:09:00,
2013-06-09 09:14:00,68.9,56.2,28.32,West,263,2.2,4.9,64,0.00,,---,0.00,VWS V14.01,2013-06-09 14:14:00,
2013-06-09 09:19:00,69.3,57.0,28.32,WSW,254,0.0,4.9,65,0.00,,---,0.00,VWS V14.01,2013-06-09 14:19:00,
2013-06-09 09:24:00,69.8,57.5,28.32,WSW,254,0.0,4.9,65,0.00,,---,0.00,VWS V14.01,2013-06-09 14:24:00,
2013-06-09 09:30:00,70.5,58.6,28.32,WSW,254,0.0,4.9,66,0.00,,---,0.00,VWS V14.01,2013-06-09 14:30:00,
2013-06-09 09:35:00,71.1,57.4,28.32,WSW,254,0.0,4.9,62,0.00,,---,0.00,VWS V14.01,2013-06-09 14:35:00,
2013-06-09 09:40:00,71.4,57.3,28.32,WSW,253,2.7,4.9,61,0.00,,---,0.00,VWS V14.01,2013-06-09 14:40:00,
2013-06-09 09:45:00,71.8,57.6,28.32,West,274,3.6,4.9,61,0.00,,---,0.00,VWS V14.01,2013-06-09 14:45:00,
2013-06-09 09:50:00,72.3,58.6,28.32,SW,236,5.4,5.4,62,0.00,,---,0.00,VWS V14.01,2013-06-09 14:50:00,
2013-06-09 09:55:00,72.9,57.7,28.32,SW,234,3.1,7.6,59,0.00,,---,0.00,VWS V14.01,2013-06-09 14:55:00,
2013-06-09 10:00:00,73.2,56.6,28.32,West,274,2.7,5.8,56,0.00,,---,0.00,VWS V14.01,2013-06-09 15:00:00,
2013-06-09 10:06:00,73.6,57.9,28.32,West,275,4.0,5.8,58,0.00,,---,0.00,VWS V14.01,2013-06-09 15:06:00,
2013-06-09 10:11:00,73.9,57.3,28.32,West,265,0.0,5.8,56,0.00,,---,0.00,VWS V14.01,2013-06-09 15:11:00,
2013-06-09 10:16:00,74.5,56.2,28.32,WSW,243,5.4,5.8,53,0.00,,---,0.00,VWS V14.01,2013-06-09 15:16:00,
2013-06-09 10:22:00,74.8,57.6,28.32,SW,236,0.0,7.6,55,0.00,,---,0.00,VWS V14.01,2013-06-09 15:22:00,
2013-06-09 10:27:00,75.2,58.4,28.32,WSW,253,0.0,7.6,56,0.00,,---,0.00,VWS V14.01,2013-06-09 15:27:00,
2013-06-09 10:32:00,75.2,55.8,28.32,WNW,282,0.0,7.6,51,0.00,,---,0.00,VWS V14.01,2013-06-09 15:32:00,
2013-06-09 10:37:00,75.4,55.5,28.32,West,260,0.0,8.1,50,0.00,,---,0.00,VWS V14.01,2013-06-09 15:37:00,
2013-06-09 10:42:00,75.4,53.8,28.32,West,260,5.4,8.1,47,0.00,,---,0.00,VWS V14.01,2013-06-09 15:42:00,
2013-06-09 10:47:00,75.4,54.9,28.32,West,274,3.6,8.1,49,0.00,,---,0.00,VWS V14.01,2013-06-09 15:47:00,
2013-06-09 10:52:00,75.6,53.9,28.32,West,273,6.7,8.1,47,0.00,,---,0.00,VWS V14.01,2013-06-09 15:52:00,
2013-06-09 10:57:00,75.9,56.0,28.32,West,270,2.7,8.1,50,0.00,,---,0.00,VWS V14.01,2013-06-09 15:57:00,
2013-06-09 11:02:00,75.9,52.5,28.32,WSW,252,3.6,9.6,44,0.00,,---,0.00,VWS V14.01,2013-06-09 16:02:00,
2013-06-09 11:08:00,76.1,54.4,28.32,West,263,2.7,9.6,47,0.00,,---,0.00,VWS V14.01,2013-06-09 16:08:00,
2013-06-09 11:13:00,76.5,54.2,28.32,WNW,300,0.0,9.6,46,0.00,,---,0.00,VWS V14.01,2013-06-09 16:13:00,
2013-06-09 11:18:00,76.6,53.7,28.32,NW,306,3.6,9.6,45,0.00,,---,0.00,VWS V14.01,2013-06-09 16:18:00,
2013-06-09 11:23:00,76.6,54.9,28.32,West,266,3.1,9.6,47,0.00,,---,0.00,VWS V14.01,2013-06-09 16:23:00,
2013-06-09 11:28:00,76.8,55.1,28.32,WSW,254,6.3,11.0,47,0.00,,---,0.00,VWS V14.01,2013-06-09 16:28:00,
2013-06-09 11:33:00,77.2,54.2,28.32,West,271,2.7,11.0,45,0.00,,---,0.00,VWS V14.01,2013-06-09 16:33:00,
2013-06-09 11:38:00,77.2,53.6,28.32,West,278,5.4,11.0,44,0.00,,---,0.00,VWS V14.01,2013-06-09 16:38:00,
2013-06-09 11:43:00,77.4,54.4,28.32,WSW,240,6.3,11.0,45,0.00,,---,0.00,VWS V14.01,2013-06-09 16:43:00,
2013-06-09 11:48:00,77.4,54.4,28.32,WSW,250,3.6,11.0,45,0.00,,---,0.00,VWS V14.01,2013-06-09 16:48:00,
2013-06-09 11:53:00,77.4,53.8,28.32,WSW,237,6.7,11.0,44,0.00,,---,0.00,VWS V14.01,2013-06-09 16:53:00,
2013-06-09 11:58:00,77.5,54.5,28.32,WSW,244,2.7,11.0,45,0.00,,---,0.00,VWS V14.01,2013-06-09 16:58:00,
2013-06-09 12:04:00,77.7,53.5,28.32,WSW,237,5.4,6.3,43,0.00,,---,0.00,VWS V14.01,2013-06-09 17:04:00,
2013-06-09 12:09:00,77.9,53.0,28.32,WNW,301,5.8,11.4,42,0.00,,---,0.00,VWS V14.01,2013-06-09 17:09:00,
2013-06-09 12:14:00,77.7,52.2,28.32,WSW,256,6.7,11.4,41,0.00,,---,0.00,VWS V14.01,2013-06-09 17:14:00,
2013-06-09 12:19:00,77.9,53.0,28.32,WNW,291,3.1,11.4,42,0.00,,---,0.00,VWS V14.01,2013-06-09 17:19:00,
2013-06-09 12:24:00,78.3,52.0,28.32,West,278,2.7,11.4,40,0.00,,---,0.00,VWS V14.01,2013-06-09 17:24:00,
2013-06-09 12:29:00,78.1,52.5,28.32,WNW,284,7.6,11.4,41,0.00,,---,0.00,VWS V14.01,2013-06-09 17:29:00,
2013-06-09 12:34:00,78.4,53.5,28.32,West,281,2.7,11.4,42,0.00,,---,0.00,VWS V14.01,2013-06-09 17:34:00,
2013-06-09 12:39:00,78.4,52.1,28.32,WNW,287,3.1,11.4,40,0.00,,---,0.00,VWS V14.01,2013-06-09 17:39:00,
2013-06-09 12:44:00,78.6,53.6,28.32,WSW,247,7.2,11.4,42,0.00,,---,0.00,VWS V14.01,2013-06-09 17:44:00,
2013-06-09 12:50:00,79.2,52.8,28.32,NW,306,7.2,11.4,40,0.00,,---,0.00,VWS V14.01,2013-06-09 17:50:00,
2013-06-09 12:55:00,79.3,51.5,28.32,West,263,4.5,11.4,38,0.00,,---,0.00,VWS V14.01,2013-06-09 17:55:00,
2013-06-09 13:00:00,79.2,51.4,28.32,NW,307,6.3,12.3,38,0.00,,---,0.00,VWS V14.01,2013-06-09 18:00:00,
2013-06-09 13:05:00,79.2,51.4,28.32,WSW,258,7.6,12.8,38,0.00,,---,0.00,VWS V14.01,2013-06-09 18:05:00,
2013-06-09 13:10:00,79.3,53.0,28.32,WSW,258,2.2,12.8,40,0.00,,---,0.00,VWS V14.01,2013-06-09 18:10:00,
2013-06-09 13:15:00,79.3,49.3,28.32,WSW,256,10.5,12.8,35,0.00,,---,0.00,VWS V14.01,2013-06-09 18:15:00,
2013-06-09 13:20:00,79.7,49.7,28.32,SW,225,6.3,12.8,35,0.00,,---,0.00,VWS V14.01,2013-06-09 18:20:00,
2013-06-09 13:25:00,80.1,50.7,28.32,WSW,252,3.6,12.8,36,0.00,,---,0.00,VWS V14.01,2013-06-09 18:25:00,
2013-06-09 13:30:00,80.2,50.1,28.32,SW,224,4.0,12.8,35,0.00,,---,0.00,VWS V14.01,2013-06-09 18:30:00,
2013-06-09 13:35:00,80.4,50.3,28.32,West,281,2.7,12.8,35,0.00,,---,0.00,VWS V14.01,2013-06-09 18:35:00,
2013-06-09 13:41:00,80.4,50.3,28.32,West,271,2.7,12.8,35,0.00,,---,0.00,VWS V14.01,2013-06-09 18:41:00,
2013-06-09 13:46:00,80.4,51.0,28.32,NNW,340,3.1,12.8,36,0.00,,---,0.00,VWS V14.01,2013-06-09 18:46:00,
2013-06-09 13:52:00,80.6,51.2,28.32,West,279,3.6,12.8,36,0.00,,---,0.00,VWS V14.01,2013-06-09 18:52:00,
2013-06-09 13:57:00,81.1,52.4,28.32,West,268,6.7,12.8,37,0.00,,---,0.00,VWS V14.01,2013-06-09 18:57:00,
2013-06-09 14:02:00,81.5,50.5,28.32,SW,236,5.8,7.6,34,0.00,,---,0.00,VWS V14.01,2013-06-09 19:02:00,
2013-06-09 14:07:00,81.7,52.2,28.29,West,268,3.6,10.1,36,0.00,,---,0.00,VWS V14.01,2013-06-09 19:07:00,
2013-06-09 14:12:00,82.0,51.7,28.29,West,281,4.9,10.1,35,0.00,,---,0.00,VWS V14.01,2013-06-09 19:12:00,
2013-06-09 14:17:00,82.0,50.9,28.29,WNW,293,4.9,10.1,34,0.00,,---,0.00,VWS V14.01,2013-06-09 19:17:00,
2013-06-09 14:22:00,81.9,50.8,28.29,WNW,290,3.1,10.1,34,0.00,,---,0.00,VWS V14.01,2013-06-09 19:22:00,
2013-06-09 14:27:00,81.9,50.8,28.29,West,265,2.7,10.1,34,0.00,,---,0.00,VWS V14.01,2013-06-09 19:27:00,
2013-06-09 14:32:00,82.0,51.7,28.29,WSW,253,5.4,12.3,35,0.00,,---,0.00,VWS V14.01,2013-06-09 19:32:00,
2013-06-09 14:38:00,82.0,50.1,28.29,West,264,5.8,12.3,33,0.00,,---,0.00,VWS V14.01,2013-06-09 19:38:00,
2013-06-09 14:43:00,82.4,50.4,28.29,WSW,245,3.1,12.3,33,0.00,,---,0.00,VWS V14.01,2013-06-09 19:43:00,
2013-06-09 14:48:00,82.9,51.7,28.29,West,268,4.9,12.3,34,0.00,,---,0.00,VWS V14.01,2013-06-09 19:48:00,
2013-06-09 14:53:00,83.1,51.1,28.29,WSW,258,5.4,12.3,33,0.00,,---,0.00,VWS V14.01,2013-06-09 19:53:00,
2013-06-09 14:58:00,83.1,51.1,28.29,WNW,298,2.7,12.3,33,0.00,,---,0.00,VWS V14.01,2013-06-09 19:58:00,
2013-06-09 15:03:00,83.3,50.4,28.29,WSW,237,7.6,8.7,32,0.00,,---,0.00,VWS V14.01,2013-06-09 20:03:00,
2013-06-09 15:08:00,83.5,50.5,28.29,NW,313,5.4,8.7,32,0.00,,---,0.00,VWS V14.01,2013-06-09 20:08:00,
2013-06-09 15:13:00,83.3,50.4,28.29,West,281,5.4,8.7,32,0.00,,---,0.00,VWS V14.01,2013-06-09 20:13:00,
2013-06-09 15:18:00,83.3,50.4,28.29,West,277,3.6,8.7,32,0.00,,---,0.00,VWS V14.01,2013-06-09 20:18:00,
2013-06-09 15:23:00,83.1,51.1,28.29,West,278,5.4,8.7,33,0.00,,---,0.00,VWS V14.01,2013-06-09 20:23:00,
2013-06-09 15:29:00,83.3,51.2,28.29,WSW,256,4.0,9.6,33,0.00,,---,0.00,VWS V14.01,2013-06-09 20:29:00,
2013-06-09 15:34:00,83.1,51.1,28.29,South,184,4.0,9.6,33,0.00,,---,0.00,VWS V14.01,2013-06-09 20:34:00,
2013-06-09 15:39:00,83.1,51.9,28.29,WSW,257,4.0,9.6,34,0.00,,---,0.00,VWS V14.01,2013-06-09 20:39:00,
2013-06-09 15:44:00,83.1,50.2,28.29,West,262,5.4,10.5,32,0.00,,---,0.00,VWS V14.01,2013-06-09 20:44:00,
2013-06-09 15:49:00,83.1,50.2,28.29,West,261,4.0,10.5,32,0.00,,---,0.00,VWS V14.01,2013-06-09 20:49:00,
2013-06-09 15:54:00,82.9,50.1,28.26,SW,228,6.3,11.9,32,0.00,,---,0.00,VWS V14.01,2013-06-09 20:54:00,
2013-06-09 15:59:00,82.8,50.8,28.26,WSW,255,5.8,11.9,33,0.00,,---,0.00,VWS V14.01,2013-06-09 20:59:00,
2013-06-09 16:04:00,83.1,51.9,28.26,SSW,207,3.1,8.1,34,0.00,,---,0.00,VWS V14.01,2013-06-09 21:04:00,
2013-06-09 16:09:00,83.3,52.0,28.26,South,186,6.3,8.1,34,0.00,,---,0.00,VWS V14.01,2013-06-09 21:09:00,
2013-06-09 16:14:00,83.5,50.5,28.26,West,264,5.4,8.7,32,0.00,,---,0.00,VWS V14.01,2013-06-09 21:14:00,
2013-06-09 16:19:00,83.3,50.4,28.26,WSW,239,2.7,10.1,32,0.00,,---,0.00,VWS V14.01,2013-06-09 21:19:00,
2013-06-09 16:24:00,83.5,50.5,28.26,West,261,6.3,10.1,32,0.00,,---,0.00,VWS V14.01,2013-06-09 21:24:00,
2013-06-09 16:29:00,83.3,50.4,28.26,WSW,253,3.1,10.1,32,0.00,,---,0.00,VWS V14.01,2013-06-09 21:29:00,
2013-06-09 16:35:00,83.3,51.2,28.26,West,278,2.7,10.1,33,0.00,,---,0.00,VWS V14.01,2013-06-09 21:35:00,
2013-06-09 16:40:00,83.5,51.4,28.26,West,272,3.1,10.1,33,0.00,,---,0.00,VWS V14.01,2013-06-09 21:40:00,
2013-06-09 16:45:00,83.7,51.5,28.26,WSW,247,0.0,10.1,33,0.00,,---,0.00,VWS V14.01,2013-06-09 21:45:00,
2013-06-09 16:50:00,83.7,52.3,28.26,West,259,3.6,10.1,34,0.00,,---,0.00,VWS V14.01,2013-06-09 21:50:00,
2013-06-09 16:55:00,84.0,51.0,28.26,NW,310,3.1,10.1,32,0.00,,---,0.00,VWS V14.01,2013-06-09 21:55:00,
2013-06-09 17:00:00,84.0,49.3,28.26,NW,324,3.1,10.5,30,0.00,,---,0.00,VWS V14.01,2013-06-09 22:00:00,
2013-06-09 17:05:00,84.4,47.8,28.26,WSW,242,5.4,8.1,28,0.00,,---,0.00,VWS V14.01,2013-06-09 22:05:00,
2013-06-09 17:10:00,84.6,44.9,28.26,WSW,241,8.3,8.3,25,0.00,,---,0.00,VWS V14.01,2013-06-09 22:10:00,
2013-06-09 17:15:00,84.7,48.1,28.26,WNW,283,0.0,8.3,28,0.00,,---,0.00,VWS V14.01,2013-06-09 22:15:00,
2013-06-09 17:20:00,84.7,49.0,28.26,WNW,301,3.6,8.3,29,0.00,,---,0.00,VWS V14.01,2013-06-09 22:20:00,
2013-06-09 17:25:00,84.6,48.8,28.26,WNW,299,2.2,8.3,29,0.00,,---,0.00,VWS V14.01,2013-06-09 22:25:00,
2013-06-09 17:30:00,84.4,48.7,28.26,SSW,206,2.7,8.3,29,0.00,,---,0.00,VWS V14.01,2013-06-09 22:30:00,
2013-06-09 17:36:00,84.2,46.6,28.26,WSW,251,3.1,8.3,27,0.00,,---,0.00,VWS V14.01,2013-06-09 22:36:00,
2013-06-09 17:41:00,84.2,45.6,28.26,NW,310,2.7,8.3,26,0.00,,---,0.00,VWS V14.01,2013-06-09 22:41:00,
2013-06-09 17:46:00,84.2,46.6,28.26,West,265,2.7,8.3,27,0.00,,---,0.00,VWS V14.01,2013-06-09 22:46:00,
2013-06-09 17:52:00,84.0,47.4,28.26,West,264,0.0,8.3,28,0.00,,---,0.00,VWS V14.01,2013-06-09 22:52:00,
2013-06-09 17:57:00,83.8,48.2,28.26,West,264,0.0,8.3,29,0.00,,---,0.00,VWS V14.01,2013-06-09 22:57:00,
2013-06-09 18:02:00,83.8,48.2,28.26,West,265,0.0,2.2,29,0.00,,---,0.00,VWS V14.01,2013-06-09 23:02:00,
2013-06-09 18:07:00,83.7,47.1,28.26,West,263,0.0,3.1,28,0.00,,---,0.00,VWS V14.01,2013-06-09 23:07:00,
2013-06-09 18:12:00,83.7,47.1,28.26,West,268,0.0,3.1,28,0.00,,---,0.00,VWS V14.01,2013-06-09 23:12:00,
2013-06-09 18:17:00,83.5,47.9,28.26,WSW,249,0.0,3.1,29,0.00,,---,0.00,VWS V14.01,2013-06-09 23:17:00,
2013-06-09 18:22:00,83.5,47.9,28.26,WNW,292,0.0,3.1,29,0.00,,---,0.00,VWS V14.01,2013-06-09 23:22:00,
2013-06-09 18:27:00,83.3,47.8,28.26,WNW,292,0.0,3.1,29,0.00,,---,0.00,VWS V14.01,2013-06-09 23:27:00,
2013-06-09 18:32:00,83.1,47.6,28.26,West,279,0.0,3.1,29,0.00,,---,0.00,VWS V14.01,2013-06-09 23:32:00,
2013-06-09 18:37:00,82.9,47.5,28.26,West,281,0.0,3.1,29,0.00,,---,0.00,VWS V14.01,2013-06-09 23:37:00,
2013-06-09 18:43:00,82.8,48.2,28.26,West,280,0.0,3.1,30,0.00,,---,0.00,VWS V14.01,2013-06-09 23:43:00,
2013-06-09 18:48:00,82.6,48.0,28.26,North,357,0.0,3.1,30,0.00,,---,0.00,VWS V14.01,2013-06-09 23:48:00,
2013-06-09 18:53:00,82.4,47.9,28.26,West,281,4.0,5.8,30,0.00,,---,0.00,VWS V14.01,2013-06-09 23:53:00,
2013-06-09 18:58:00,82.0,47.6,28.26,NNE,21,0.0,5.8,30,0.00,,---,0.00,VWS V14.01,2013-06-09 23:58:00,
2013-06-09 19:03:00,81.9,47.4,28.26,WNW,283,0.0,3.1,30,0.00,,---,0.00,VWS V14.01,2013-06-10 00:03:00,
2013-06-09 19:08:00,81.7,47.3,28.26,WNW,283,0.0,3.1,30,0.00,,---,0.00,VWS V14.01,2013-06-10 00:08:00,
2013-06-09 19:13:00,81.5,47.1,28.26,WNW,283,0.0,3.1,30,0.00,,---,0.00,VWS V14.01,2013-06-10 00:13:00,
2013-06-09 19:18:00,81.3,47.8,28.26,WNW,283,0.0,3.1,31,0.00,,---,0.00,VWS V14.01,2013-06-10 00:18:00,
2013-06-09 19:23:00,81.1,46.8,28.26,WNW,283,0.0,3.1,30,0.00,,---,0.00,VWS V14.01,2013-06-10 00:23:00,
2013-06-09 19:28:00,81.0,47.5,28.26,WNW,283,0.0,3.1,31,0.00,,---,0.00,VWS V14.01,2013-06-10 00:28:00,
2013-06-09 19:34:00,80.8,46.5,28.26,WNW,284,0.0,3.1,30,0.00,,---,0.00,VWS V14.01,2013-06-10 00:34:00,
2013-06-09 19:39:00,80.8,47.4,28.26,WNW,284,0.0,3.1,31,0.00,,---,0.00,VWS V14.01,2013-06-10 00:39:00,
2013-06-09 19:44:00,80.6,47.2,28.26,WNW,284,0.0,3.1,31,0.00,,---,0.00,VWS V14.01,2013-06-10 00:44:00,
2013-06-09 19:49:00,80.2,46.9,28.26,WNW,283,0.0,3.1,31,0.00,,---,0.00,VWS V14.01,2013-06-10 00:49:00,
2013-06-09 19:54:00,80.1,47.6,28.26,WNW,283,0.0,3.1,32,0.00,,---,0.00,VWS V14.01,2013-06-10 00:54:00,
2013-06-09 19:59:00,79.7,47.3,28.26,WNW,283,0.0,3.1,32,0.00,,---,0.00,VWS V14.01,2013-06-10 00:59:00,
2013-06-09 20:04:00,79.3,47.8,28.26,WNW,283,0.0,0.0,33,0.00,,---,0.00,VWS V14.01,2013-06-10 01:04:00,
2013-06-09 20:09:00,79.0,47.5,28.26,WNW,283,0.0,0.0,33,0.00,,---,0.00,VWS V14.01,2013-06-10 01:09:00,
2013-06-09 20:14:00,78.6,47.9,28.26,WNW,283,0.0,0.0,34,0.00,,---,0.00,VWS V14.01,2013-06-10 01:14:00,
2013-06-09 20:20:00,78.1,48.2,28.26,WNW,283,0.0,0.0,35,0.00,,---,0.00,VWS V14.01,2013-06-10 01:20:00,
2013-06-09 20:25:00,77.5,49.2,28.26,WNW,283,0.0,0.0,37,0.00,,---,0.00,VWS V14.01,2013-06-10 01:25:00,
2013-06-09 20:30:00,76.8,50.0,28.26,WNW,283,0.0,0.0,39,0.00,,---,0.00,VWS V14.01,2013-06-10 01:30:00,
2013-06-09 20:35:00,76.3,50.2,28.26,WNW,283,0.0,0.0,40,0.00,,---,0.00,VWS V14.01,2013-06-10 01:35:00,
2013-06-09 20:40:00,75.6,49.6,28.26,WNW,283,0.0,0.0,40,0.00,,---,0.00,VWS V14.01,2013-06-10 01:40:00,
2013-06-09 20:45:00,75.0,49.8,28.26,WNW,283,0.0,0.0,41,0.00,,---,0.00,VWS V14.01,2013-06-10 01:45:00,
2013-06-09 20:50:00,74.7,50.1,28.26,WNW,283,0.0,0.0,42,0.00,,---,0.00,VWS V14.01,2013-06-10 01:50:00,
2013-06-09 20:55:00,74.1,49.6,28.26,WNW,283,0.0,0.0,42,0.00,,---,0.00,VWS V14.01,2013-06-10 01:55:00,
2013-06-09 21:00:00,73.6,49.1,28.26,WNW,283,0.0,0.0,42,0.00,,---,0.00,VWS V14.01,2013-06-10 02:00:00,
2013-06-09 21:05:00,73.2,49.4,28.26,WNW,283,0.0,0.0,43,0.00,,---,0.00,VWS V14.01,2013-06-10 02:05:00,
2013-06-09 21:10:00,72.7,49.5,28.26,WNW,283,0.0,0.0,44,0.00,,---,0.00,VWS V14.01,2013-06-10 02:10:00,
2013-06-09 21:16:00,72.3,49.2,28.26,WNW,283,0.0,0.0,44,0.00,,---,0.00,VWS V14.01,2013-06-10 02:16:00,
2013-06-09 21:21:00,72.1,49.0,28.26,WNW,283,0.0,0.0,44,0.00,,---,0.00,VWS V14.01,2013-06-10 02:21:00,
2013-06-09 21:27:00,72.0,48.9,28.26,WNW,284,0.0,0.0,44,0.00,,---,0.00,VWS V14.01,2013-06-10 02:27:00,
2013-06-09 21:32:00,71.8,48.7,28.26,WNW,283,0.0,0.0,44,0.00,,---,0.00,VWS V14.01,2013-06-10 02:32:00,
2013-06-09 21:37:00,71.8,48.7,28.29,WNW,283,0.0,0.0,44,0.00,,---,0.00,VWS V14.01,2013-06-10 02:37:00,
2013-06-09 21:42:00,71.8,49.3,28.29,WNW,283,0.0,3.1,45,0.00,,---,0.00,VWS V14.01,2013-06-10 02:42:00,
2013-06-09 21:47:00,71.8,49.9,28.29,WNW,283,0.0,3.1,46,0.00,,---,0.00,VWS V14.01,2013-06-10 02:47:00,
2013-06-09 21:52:00,71.6,49.8,28.29,WNW,283,0.0,3.1,46,0.00,,---,0.00,VWS V14.01,2013-06-10 02:52:00,
2013-06-09 21:57:00,71.2,50.6,28.29,WNW,283,0.0,3.1,48,0.00,,---,0.00,VWS V14.01,2013-06-10 02:57:00,
2013-06-09 22:02:00,70.7,50.6,28.29,WNW,283,0.0,0.0,49,0.00,,---,0.00,VWS V14.01,2013-06-10 03:02:00,
2013-06-09 22:08:00,70.3,50.3,28.29,WNW,283,0.0,0.0,49,0.00,,---,0.00,VWS V14.01,2013-06-10 03:08:00,
2013-06-09 22:12:00,70.0,50.5,28.29,WNW,283,0.0,0.0,50,0.00,,---,0.00,VWS V14.01,2013-06-10 03:12:00,
2013-06-09 22:17:00,69.6,51.2,28.29,WNW,283,0.0,0.0,52,0.00,,---,0.00,VWS V14.01,2013-06-10 03:17:00,
2013-06-09 22:23:00,69.1,50.7,28.32,WNW,283,0.0,0.0,52,0.00,,---,0.00,VWS V14.01,2013-06-10 03:23:00,
2013-06-09 22:28:00,68.9,51.1,28.32,WNW,283,0.0,0.0,53,0.00,,---,0.00,VWS V14.01,2013-06-10 03:28:00,
2013-06-09 22:33:00,68.5,51.8,28.32,WNW,283,0.0,0.0,55,0.00,,---,0.00,VWS V14.01,2013-06-10 03:33:00,
2013-06-09 22:38:00,68.4,52.1,28.32,WNW,283,0.0,0.0,56,0.00,,---,0.00,VWS V14.01,2013-06-10 03:38:00,
2013-06-09 22:43:00,68.0,51.7,28.32,WNW,283,0.0,0.0,56,0.00,,---,0.00,VWS V14.01,2013-06-10 03:43:00,
2013-06-09 22:48:00,67.8,52.5,28.32,WNW,283,0.0,0.0,58,0.00,,---,0.00,VWS V14.01,2013-06-10 03:48:00,
2013-06-09 22:53:00,67.6,52.3,28.32,WNW,283,0.0,0.0,58,0.00,,---,0.00,VWS V14.01,2013-06-10 03:53:00,
2013-06-09 22:58:00,67.6,53.3,28.32,WNW,283,0.0,0.0,60,0.00,,---,0.00,VWS V14.01,2013-06-10 03:58:00,
2013-06-09 23:01:00,67.6,53.3,28.32,WNW,283,0.0,0.0,60,0.00,,---,0.00,VWS V14.01,2013-06-10 04:01:00,
2013-06-09 23:03:00,67.5,53.6,28.32,WNW,283,0.0,0.0,61,0.00,,---,0.00,VWS V14.01,2013-06-10 04:03:00,
2013-06-09 23:04:00,67.5,53.6,28.32,WNW,283,0.0,0.0,61,0.00,,---,0.00,VWS V14.01,2013-06-10 04:04:00,
2013-06-09 23:09:00,67.3,53.4,28.32,WNW,283,0.0,0.0,61,0.00,,---,0.00,VWS V14.01,2013-06-10 04:09:00,
2013-06-09 23:15:00,67.3,53.8,28.32,WNW,283,0.0,0.0,62,0.00,,---,0.00,VWS V14.01,2013-06-10 04:15:00,
2013-06-09 23:20:00,67.1,54.1,28.32,WNW,283,0.0,0.0,63,0.00,,---,0.00,VWS V14.01,2013-06-10 04:20:00,
2013-06-09 23:25:00,66.9,53.9,28.32,WNW,283,0.0,0.0,63,0.00,,---,0.00,VWS V14.01,2013-06-10 04:25:00,
2013-06-09 23:30:00,66.7,53.8,28.32,WNW,283,0.0,0.0,63,0.00,,---,0.00,VWS V14.01,2013-06-10 04:30:00,
2013-06-09 23:35:00,66.6,54.0,28.32,WNW,283,0.0,0.0,64,0.00,,---,0.00,VWS V14.01,2013-06-10 04:35:00,
2013-06-09 23:40:00,66.4,53.8,28.32,WNW,283,0.0,0.0,64,0.00,,---,0.00,VWS V14.01,2013-06-10 04:40:00,
2013-06-09 23:45:00,66.2,54.1,28.32,WNW,283,0.0,0.0,65,0.00,,---,0.00,VWS V14.01,2013-06-10 04:45:00,
2013-06-09 23:50:00,66.0,54.3,28.32,WNW,283,0.0,0.0,66,0.00,,---,0.00,VWS V14.01,2013-06-10 04:50:00,
2013-06-09 23:55:00,65.7,54.4,28.32,WNW,283,0.0,0.0,67,0.00,,---,0.00,VWS V14.01,2013-06-10 04:55:00,